sensor_id;sensor_type;location;lat;lon;timestamp;pressure;altitude;pressure_sealevel;temperature;humidity
21109;BME280;10712;52.944;9.098;2023-05-25T00:00:21;102429.06;;;18.37;54.31
21109;BME280;10712;52.944;9.098;2023-05-25T00:02:47;102433.50;;;18.38;54.25
21109;BME280;10712;52.944;9.098;2023-05-25T00:05:13;102431.78;;;18.37;54.26
21109;BME280;10712;52.944;9.098;2023-05-25T00:07:39;102433.50;;;18.38;54.41
21109;BME280;10712;52.944;9.098;2023-05-25T00:10:06;102437.06;;;18.38;54.38
21109;BME280;10712;52.944;9.098;2023-05-25T00:12:33;102445.25;;;18.37;54.47
21109;BME280;10712;52.944;9.098;2023-05-25T00:14:59;102445.25;;;18.37;54.45
21109;BME280;10712;52.944;9.098;2023-05-25T00:17:25;102438.31;;;18.33;54.55
21109;BME280;10712;52.944;9.098;2023-05-25T00:19:57;102438.31;;;18.33;54.60
21109;BME280;10712;52.944;9.098;2023-05-25T00:22:35;102438.31;;;18.33;54.71
21109;BME280;10712;52.944;9.098;2023-05-25T00:25:02;102447.19;;;18.35;54.62
21109;BME280;10712;52.944;9.098;2023-05-25T00:27:28;102434.66;;;18.34;54.52
21109;BME280;10712;52.944;9.098;2023-05-25T00:29:54;102445.25;;;18.37;54.62
21109;BME280;10712;52.944;9.098;2023-05-25T00:32:21;102442.56;;;18.37;54.58
21109;BME280;10712;52.944;9.098;2023-05-25T00:34:46;102447.00;;;18.38;54.63
21109;BME280;10712;52.944;9.098;2023-05-25T00:37:13;102453.28;;;18.38;54.57
21109;BME280;10712;52.944;9.098;2023-05-25T00:39:38;102453.91;;;18.42;54.53
21109;BME280;10712;52.944;9.098;2023-05-25T00:42:06;102452.19;;;18.41;54.63
21109;BME280;10712;52.944;9.098;2023-05-25T00:44:33;102442.25;;;18.41;54.68
21109;BME280;10712;52.944;9.098;2023-05-25T00:46:59;102449.47;;;18.41;54.82
21109;BME280;10712;52.944;9.098;2023-05-25T00:49:33;102443.91;;;18.44;54.80
21109;BME280;10712;52.944;9.098;2023-05-25T00:52:00;102452.00;;;18.44;54.63
21109;BME280;10712;52.944;9.098;2023-05-25T00:54:26;102441.00;;;18.47;54.66
21109;BME280;10712;52.944;9.098;2023-05-25T00:57:02;102444.47;;;18.49;54.87
21109;BME280;10712;52.944;9.098;2023-05-25T00:59:50;102440.13;;;18.46;54.78
21109;BME280;10712;52.944;9.098;2023-05-25T01:02:18;102438.28;;;18.47;54.86
21109;BME280;10712;52.944;9.098;2023-05-25T01:04:49;102426.53;;;18.48;55.01
21109;BME280;10712;52.944;9.098;2023-05-25T01:07:21;102425.47;;;18.50;54.70
21109;BME280;10712;52.944;9.098;2023-05-25T01:09:55;102431.75;;;18.51;54.84
21109;BME280;10712;52.944;9.098;2023-05-25T01:12:23;102431.94;;;18.48;54.73
21109;BME280;10712;52.944;9.098;2023-05-25T01:14:52;102433.88;;;18.46;54.95
21109;BME280;10712;52.944;9.098;2023-05-25T01:17:20;102438.28;;;18.47;55.09
21109;BME280;10712;52.944;9.098;2023-05-25T01:19:46;102440.81;;;18.50;54.97
21109;BME280;10712;52.944;9.098;2023-05-25T01:22:44;102434.53;;;18.49;55.05
21109;BME280;10712;52.944;9.098;2023-05-25T01:25:19;102437.91;;;18.53;54.90
21109;BME280;10712;52.944;9.098;2023-05-25T01:27:55;102441.59;;;18.52;54.97
21109;BME280;10712;52.944;9.098;2023-05-25T01:30:25;102445.03;;;18.54;54.92
21109;BME280;10712;52.944;9.098;2023-05-25T01:32:53;102447.72;;;18.54;55.00
21109;BME280;10712;52.944;9.098;2023-05-25T01:35:20;102440.63;;;18.53;54.85
21109;BME280;10712;52.944;9.098;2023-05-25T01:37:48;102445.84;;;18.56;54.98
21109;BME280;10712;52.944;9.098;2023-05-25T01:40:16;102447.72;;;18.54;55.11
21109;BME280;10712;52.944;9.098;2023-05-25T01:42:42;102445.03;;;18.54;55.03
21109;BME280;10712;52.944;9.098;2023-05-25T01:45:09;102439.84;;;18.51;55.01
21109;BME280;10712;52.944;9.098;2023-05-25T01:48:02;102443.91;;;18.44;54.75
21109;BME280;10712;52.944;9.098;2023-05-25T01:50:50;102453.91;;;18.42;54.95
21109;BME280;10712;52.944;9.098;2023-05-25T01:53:23;102442.72;;;18.48;54.76
21109;BME280;10712;52.944;9.098;2023-05-25T01:55:58;102446.38;;;18.47;54.84
21109;BME280;10712;52.944;9.098;2023-05-25T01:58:52;102441.22;;;18.44;54.94
21109;BME280;10712;52.944;9.098;2023-05-25T02:01:20;102444.78;;;18.44;54.93
21109;BME280;10712;52.944;9.098;2023-05-25T02:03:48;102443.03;;;18.43;54.85
21109;BME280;10712;52.944;9.098;2023-05-25T02:06:15;102443.13;;;18.42;54.65
21109;BME280;10712;52.944;9.098;2023-05-25T02:08:41;102443.13;;;18.42;54.84
21109;BME280;10712;52.944;9.098;2023-05-25T02:11:08;102443.13;;;18.42;54.68
21109;BME280;10712;52.944;9.098;2023-05-25T02:13:35;102444.00;;;18.42;54.64
21109;BME280;10712;52.944;9.098;2023-05-25T02:16:01;102444.69;;;18.46;54.71
21109;BME280;10712;52.944;9.098;2023-05-25T02:18:27;102449.09;;;18.47;54.87
21109;BME280;10712;52.944;9.098;2023-05-25T02:20:53;102444.47;;;18.49;54.80
21109;BME280;10712;52.944;9.098;2023-05-25T02:23:19;102442.53;;;18.51;54.79
21109;BME280;10712;52.944;9.098;2023-05-25T02:25:45;102445.25;;;18.51;54.91
21109;BME280;10712;52.944;9.098;2023-05-25T02:28:11;102443.31;;;18.53;54.89
21109;BME280;10712;52.944;9.098;2023-05-25T02:30:37;102448.81;;;18.52;54.92
21109;BME280;10712;52.944;9.098;2023-05-25T02:33:03;102442.44;;;18.53;54.85
21109;BME280;10712;52.944;9.098;2023-05-25T02:35:29;102443.31;;;18.53;55.16
21109;BME280;10712;52.944;9.098;2023-05-25T02:37:55;102447.72;;;18.54;54.92
21109;BME280;10712;52.944;9.098;2023-05-25T02:40:21;102447.72;;;18.54;54.93
21109;BME280;10712;52.944;9.098;2023-05-25T02:42:47;102440.50;;;18.55;54.90
21109;BME280;10712;52.944;9.098;2023-05-25T02:45:13;102445.84;;;18.56;54.88
21109;BME280;10712;52.944;9.098;2023-05-25T02:47:39;102444.78;;;18.59;54.91
21109;BME280;10712;52.944;9.098;2023-05-25T02:50:06;102436.94;;;18.54;54.89
21109;BME280;10712;52.944;9.098;2023-05-25T02:52:37;102439.63;;;18.54;55.00
21109;BME280;10712;52.944;9.098;2023-05-25T02:55:05;102426.13;;;18.54;54.95
21109;BME280;10712;52.944;9.098;2023-05-25T02:57:35;102434.16;;;18.56;55.06
21109;BME280;10712;52.944;9.098;2023-05-25T03:00:06;102435.03;;;18.56;55.07
21109;BME280;10712;52.944;9.098;2023-05-25T03:02:33;102433.13;;;18.58;54.92
21109;BME280;10712;52.944;9.098;2023-05-25T03:05:00;102431.28;;;18.59;55.09
21109;BME280;10712;52.944;9.098;2023-05-25T03:07:26;102443.91;;;18.58;54.96
21109;BME280;10712;52.944;9.098;2023-05-25T03:09:53;102439.38;;;18.59;55.06
21109;BME280;10712;52.944;9.098;2023-05-25T03:12:20;102451.78;;;18.61;55.05
21109;BME280;10712;52.944;9.098;2023-05-25T03:14:46;102451.78;;;18.61;55.22
21109;BME280;10712;52.944;9.098;2023-05-25T03:17:12;102443.69;;;18.61;55.06
21109;BME280;10712;52.944;9.098;2023-05-25T03:19:38;102457.97;;;18.63;55.10
21109;BME280;10712;52.944;9.098;2023-05-25T03:22:04;102459.81;;;18.63;55.20
21109;BME280;10712;52.944;9.098;2023-05-25T03:24:31;102451.06;;;18.59;55.08
21109;BME280;10712;52.944;9.098;2023-05-25T03:27:00;102457.19;;;18.61;55.05
21109;BME280;10712;52.944;9.098;2023-05-25T03:29:26;102457.97;;;18.63;55.27
21109;BME280;10712;52.944;9.098;2023-05-25T03:31:55;102455.28;;;18.63;55.02
21109;BME280;10712;52.944;9.098;2023-05-25T03:34:24;102461.63;;;18.62;54.96
21109;BME280;10712;52.944;9.098;2023-05-25T03:36:51;102458.75;;;18.65;55.05
21109;BME280;10712;52.944;9.098;2023-05-25T03:39:18;102461.44;;;18.65;55.05
21109;BME280;10712;52.944;9.098;2023-05-25T03:41:47;102472.25;;;18.65;55.17
21109;BME280;10712;52.944;9.098;2023-05-25T03:44:13;102469.53;;;18.65;55.12
21109;BME280;10712;52.944;9.098;2023-05-25T03:46:41;102467.72;;;18.66;55.25
21109;BME280;10712;52.944;9.098;2023-05-25T03:49:07;102462.41;;;18.64;55.28
21109;BME280;10712;52.944;9.098;2023-05-25T03:51:39;102462.50;;;18.63;55.43
21109;BME280;10712;52.944;9.098;2023-05-25T03:54:06;102463.38;;;18.63;55.45
21109;BME280;10712;52.944;9.098;2023-05-25T03:56:32;102461.53;;;18.64;55.55
21109;BME280;10712;52.944;9.098;2023-05-25T03:58:57;102465.19;;;18.63;55.54
21109;BME280;10712;52.944;9.098;2023-05-25T04:01:25;102468.78;;;18.63;55.61
21109;BME280;10712;52.944;9.098;2023-05-25T04:03:51;102475.91;;;18.64;55.44
21109;BME280;10712;52.944;9.098;2023-05-25T04:06:18;102479.16;;;18.69;55.71
21109;BME280;10712;52.944;9.098;2023-05-25T04:08:44;102483.91;;;18.66;55.76
21109;BME280;10712;52.944;9.098;2023-05-25T04:11:10;102480.25;;;18.67;55.67
21109;BME280;10712;52.944;9.098;2023-05-25T04:13:36;102482.84;;;18.68;55.83
21109;BME280;10712;52.944;9.098;2023-05-25T04:16:06;102483.59;;;18.70;55.77
21109;BME280;10712;52.944;9.098;2023-05-25T04:18:31;102487.84;;;18.74;55.77
21109;BME280;10712;52.944;9.098;2023-05-25T04:20:58;102478.78;;;18.75;55.74
21109;BME280;10712;52.944;9.098;2023-05-25T04:23:25;102478.03;;;18.73;55.89
21109;BME280;10712;52.944;9.098;2023-05-25T04:25:52;102476.06;;;18.75;55.95
21109;BME280;10712;52.944;9.098;2023-05-25T04:28:19;102478.78;;;18.75;55.90
21109;BME280;10712;52.944;9.098;2023-05-25T04:30:50;102483.88;;;18.80;55.83
21109;BME280;10712;52.944;9.098;2023-05-25T04:33:39;102490.25;;;18.79;55.91
21109;BME280;10712;52.944;9.098;2023-05-25T04:36:21;102491.13;;;18.79;55.91
21109;BME280;10712;52.944;9.098;2023-05-25T04:38:47;102490.34;;;18.77;55.77
21109;BME280;10712;52.944;9.098;2023-05-25T04:41:17;102493.13;;;18.76;55.77
21109;BME280;10712;52.944;9.098;2023-05-25T04:43:48;102497.56;;;18.77;55.77
21109;BME280;10712;52.944;9.098;2023-05-25T04:46:15;102501.06;;;18.79;55.42
21109;BME280;10712;52.944;9.098;2023-05-25T04:48:42;102503.75;;;18.79;55.45
21109;BME280;10712;52.944;9.098;2023-05-25T04:51:08;102504.50;;;18.81;55.30
21109;BME280;10712;52.944;9.098;2023-05-25T04:53:34;102505.19;;;18.84;55.34
21109;BME280;10712;52.944;9.098;2023-05-25T04:56:01;102508.53;;;18.88;55.41
21109;BME280;10712;52.944;9.098;2023-05-25T04:58:27;102511.16;;;18.89;55.33
21109;BME280;10712;52.944;9.098;2023-05-25T05:00:57;102520.03;;;18.92;55.36
21109;BME280;10712;52.944;9.098;2023-05-25T05:03:23;102513.66;;;18.93;55.22
21109;BME280;10712;52.944;9.098;2023-05-25T05:05:50;102515.41;;;18.94;55.30
21109;BME280;10712;52.944;9.098;2023-05-25T05:08:22;102516.91;;;18.98;55.20
21109;BME280;10712;52.944;9.098;2023-05-25T05:10:48;102520.41;;;19.00;55.31
21109;BME280;10712;52.944;9.098;2023-05-25T05:13:15;102524.72;;;19.02;55.42
21109;BME280;10712;52.944;9.098;2023-05-25T05:15:42;102523.47;;;19.08;55.33
21109;BME280;10712;52.944;9.098;2023-05-25T05:18:08;102525.41;;;19.06;55.48
21109;BME280;10712;52.944;9.098;2023-05-25T05:20:34;102519.78;;;19.09;55.67
21109;BME280;10712;52.944;9.098;2023-05-25T05:22:59;102523.25;;;19.11;55.45
21109;BME280;10712;52.944;9.098;2023-05-25T05:25:26;102532.44;;;19.08;55.54
21109;BME280;10712;52.944;9.098;2023-05-25T05:27:52;102535.03;;;19.10;55.62
21109;BME280;10712;52.944;9.098;2023-05-25T05:30:30;102533.75;;;19.15;55.75
21109;BME280;10712;52.944;9.098;2023-05-25T05:32:56;102535.38;;;19.18;55.56
21109;BME280;10712;52.944;9.098;2023-05-25T05:35:25;102533.47;;;19.20;55.57
21109;BME280;10712;52.944;9.098;2023-05-25T05:37:59;102533.06;;;19.26;55.46
21109;BME280;10712;52.944;9.098;2023-05-25T05:40:26;102532.63;;;19.32;55.41
21109;BME280;10712;52.944;9.098;2023-05-25T05:42:52;102530.28;;;19.40;55.31
21109;BME280;10712;52.944;9.098;2023-05-25T05:45:17;102532.69;;;19.45;55.36
21109;BME280;10712;52.944;9.098;2023-05-25T05:47:43;102534.41;;;19.46;55.31
21109;BME280;10712;52.944;9.098;2023-05-25T05:50:10;102537.13;;;19.46;55.38
21109;BME280;10712;52.944;9.098;2023-05-25T05:52:37;102548.91;;;19.45;55.05
21109;BME280;10712;52.944;9.098;2023-05-25T05:55:03;102541.88;;;19.42;54.97
21109;BME280;10712;52.944;9.098;2023-05-25T05:57:29;102548.03;;;19.44;54.68
21109;BME280;10712;52.944;9.098;2023-05-25T05:59:57;102547.06;;;19.45;54.69
21109;BME280;10712;52.944;9.098;2023-05-25T06:02:23;102545.44;;;19.43;54.86
21109;BME280;10712;52.944;9.098;2023-05-25T06:04:49;102550.84;;;19.43;54.76
21109;BME280;10712;52.944;9.098;2023-05-25T06:07:14;102546.28;;;19.43;54.75
21109;BME280;10712;52.944;9.098;2023-05-25T06:09:40;102553.44;;;19.44;54.77
21109;BME280;10712;52.944;9.098;2023-05-25T06:12:07;102556.38;;;19.41;54.81
21109;BME280;10712;52.944;9.098;2023-05-25T06:14:33;102562.50;;;19.43;54.77
21109;BME280;10712;52.944;9.098;2023-05-25T06:17:01;102565.81;;;19.48;54.60
21109;BME280;10712;52.944;9.098;2023-05-25T06:19:27;102569.28;;;19.50;54.51
21109;BME280;10712;52.944;9.098;2023-05-25T06:21:53;102572.34;;;19.58;54.71
21109;BME280;10712;52.944;9.098;2023-05-25T06:24:20;102566.75;;;19.61;54.18
21109;BME280;10712;52.944;9.098;2023-05-25T06:26:45;102564.69;;;19.65;53.83
21109;BME280;10712;52.944;9.098;2023-05-25T06:29:12;102566.50;;;19.64;53.61
21109;BME280;10712;52.944;9.098;2023-05-25T06:31:38;102579.28;;;19.62;53.25
21109;BME280;10712;52.944;9.098;2023-05-25T06:34:04;102578.31;;;19.63;52.76
21109;BME280;10712;52.944;9.098;2023-05-25T06:36:30;102578.88;;;19.69;52.44
21109;BME280;10712;52.944;9.098;2023-05-25T06:38:57;102574.53;;;19.66;52.52
21109;BME280;10712;52.944;9.098;2023-05-25T06:41:22;102575.41;;;19.66;52.58
21109;BME280;10712;52.944;9.098;2023-05-25T06:43:48;102587.63;;;19.72;52.25
21109;BME280;10712;52.944;9.098;2023-05-25T06:46:23;102580.16;;;19.63;52.75
21109;BME280;10712;52.944;9.098;2023-05-25T06:48:48;102588.81;;;19.68;52.91
21109;BME280;10712;52.944;9.098;2023-05-25T06:51:14;102586.44;;;19.63;52.27
21109;BME280;10712;52.944;9.098;2023-05-25T06:53:40;102584.91;;;19.59;52.00
21109;BME280;10712;52.944;9.098;2023-05-25T06:56:06;102596.59;;;19.60;51.92
21109;BME280;10712;52.944;9.098;2023-05-25T06:58:31;102599.19;;;19.61;52.05
21109;BME280;10712;52.944;9.098;2023-05-25T07:00:57;102602.66;;;19.63;52.11
21109;BME280;10712;52.944;9.098;2023-05-25T07:03:25;102599.97;;;19.63;52.18
21109;BME280;10712;52.944;9.098;2023-05-25T07:05:51;102599.22;;;19.74;51.92
21109;BME280;10712;52.944;9.098;2023-05-25T07:08:17;102605.69;;;19.72;52.18
21109;BME280;10712;52.944;9.098;2023-05-25T07:10:42;102608.97;;;19.77;51.85
21109;BME280;10712;52.944;9.098;2023-05-25T07:13:09;102605.84;;;19.83;51.98
21109;BME280;10712;52.944;9.098;2023-05-25T07:15:35;102607.38;;;19.87;51.74
21109;BME280;10712;52.944;9.098;2023-05-25T07:18:01;102618.97;;;19.89;51.68
21109;BME280;10712;52.944;9.098;2023-05-25T07:20:27;102614.09;;;19.94;51.46
21109;BME280;10712;52.944;9.098;2023-05-25T07:22:54;102607.19;;;20.02;51.69
21109;BME280;10712;52.944;9.098;2023-05-25T07:25:20;102614.91;;;20.09;51.64
21109;BME280;10712;52.944;9.098;2023-05-25T07:27:49;102610.16;;;20.12;51.76
21109;BME280;10712;52.944;9.098;2023-05-25T07:30:15;102614.38;;;20.16;51.56
21109;BME280;10712;52.944;9.098;2023-05-25T07:32:41;102611.03;;;20.25;51.18
21109;BME280;10712;52.944;9.098;2023-05-25T07:35:07;102620.13;;;20.24;51.37
21109;BME280;10712;52.944;9.098;2023-05-25T07:37:32;102622.06;;;20.22;50.96
21109;BME280;10712;52.944;9.098;2023-05-25T07:39:58;102616.22;;;20.16;50.87
21109;BME280;10712;52.944;9.098;2023-05-25T07:42:24;102618.59;;;20.20;50.75
21109;BME280;10712;52.944;9.098;2023-05-25T07:44:50;102622.50;;;20.16;50.77
21109;BME280;10712;52.944;9.098;2023-05-25T07:47:16;102625.97;;;20.18;50.90
21109;BME280;10712;52.944;9.098;2023-05-25T07:49:41;102624.78;;;20.22;50.96
21109;BME280;10712;52.944;9.098;2023-05-25T07:52:07;102621.63;;;20.28;51.07
21109;BME280;10712;52.944;9.098;2023-05-25T07:54:33;102631.50;;;20.29;51.25
21109;BME280;10712;52.944;9.098;2023-05-25T07:56:59;102626.09;;;20.29;50.95
21109;BME280;10712;52.944;9.098;2023-05-25T07:59:26;102632.25;;;20.31;50.89
21109;BME280;10712;52.944;9.098;2023-05-25T08:01:51;102627.06;;;20.28;51.04
21109;BME280;10712;52.944;9.098;2023-05-25T08:04:17;102629.34;;;20.34;51.19
21109;BME280;10712;52.944;9.098;2023-05-25T08:06:43;102633.38;;;20.41;51.15
21109;BME280;10712;52.944;9.098;2023-05-25T08:09:09;102636.66;;;20.47;50.76
21109;BME280;10712;52.944;9.098;2023-05-25T08:11:39;102636.41;;;20.50;50.74
21109;BME280;10712;52.944;9.098;2023-05-25T08:14:05;102636.00;;;20.56;51.30
21109;BME280;10712;52.944;9.098;2023-05-25T08:16:30;102636.75;;;20.58;50.88
21109;BME280;10712;52.944;9.098;2023-05-25T08:18:56;102639.03;;;20.64;51.00
21109;BME280;10712;52.944;9.098;2023-05-25T08:21:22;102644.00;;;20.70;51.00
21109;BME280;10712;52.944;9.098;2023-05-25T08:23:48;102640.75;;;20.77;50.97
21109;BME280;10712;52.944;9.098;2023-05-25T08:26:15;102643.13;;;20.82;50.89
21109;BME280;10712;52.944;9.098;2023-05-25T08:28:40;102652.78;;;20.86;50.72
21109;BME280;10712;52.944;9.098;2023-05-25T08:31:06;102648.88;;;20.90;50.67
21109;BME280;10712;52.944;9.098;2023-05-25T08:33:32;102650.25;;;20.96;50.39
21109;BME280;10712;52.944;9.098;2023-05-25T08:35:58;102641.72;;;21.02;50.56
21109;BME280;10712;52.944;9.098;2023-05-25T08:38:24;102644.09;;;21.06;50.16
21109;BME280;10712;52.944;9.098;2023-05-25T08:41:04;102650.28;;;21.08;50.16
21109;BME280;10712;52.944;9.098;2023-05-25T08:43:34;102639.19;;;21.11;50.10
21109;BME280;10712;52.944;9.098;2023-05-25T08:46:05;102640.31;;;21.09;49.73
21109;BME280;10712;52.944;9.098;2023-05-25T08:48:37;102628.59;;;21.08;49.44
21109;BME280;10712;52.944;9.098;2023-05-25T08:51:08;102628.34;;;21.11;49.31
21109;BME280;10712;52.944;9.098;2023-05-25T08:53:39;102628.59;;;21.08;49.28
21109;BME280;10712;52.944;9.098;2023-05-25T08:56:16;102630.09;;;21.25;48.97
21109;BME280;10712;52.944;9.098;2023-05-25T08:59:01;102628.75;;;21.43;49.08
21109;BME280;10712;52.944;9.098;2023-05-25T09:01:29;102630.66;;;21.54;48.88
21109;BME280;10712;52.944;9.098;2023-05-25T09:03:58;102630.84;;;21.51;48.18
21109;BME280;10712;52.944;9.098;2023-05-25T09:06:25;102634.69;;;21.48;47.99
21109;BME280;10712;52.944;9.098;2023-05-25T09:08:54;102637.41;;;21.48;47.95
21109;BME280;10712;52.944;9.098;2023-05-25T09:11:20;102639.75;;;21.53;47.98
21109;BME280;10712;52.944;9.098;2023-05-25T09:13:47;102645.19;;;21.53;47.99
21109;BME280;10712;52.944;9.098;2023-05-25T09:16:15;102636.59;;;21.59;48.17
21109;BME280;10712;52.944;9.098;2023-05-25T09:18:40;102655.13;;;21.65;48.21
21109;BME280;10712;52.944;9.098;2023-05-25T09:21:06;102654.38;;;21.63;48.15
21109;BME280;10712;52.944;9.098;2023-05-25T09:23:34;102652.13;;;21.57;48.06
21109;BME280;10712;52.944;9.098;2023-05-25T09:26:00;102654.53;;;21.49;48.01
21109;BME280;10712;52.944;9.098;2023-05-25T09:28:26;102651.28;;;21.44;48.36
21109;BME280;10712;52.944;9.098;2023-05-25T09:30:52;102651.28;;;21.44;48.27
21109;BME280;10712;52.944;9.098;2023-05-25T09:33:18;102661.69;;;21.50;48.37
21109;BME280;10712;52.944;9.098;2023-05-25T09:35:45;102657.31;;;21.60;48.77
21109;BME280;10712;52.944;9.098;2023-05-25T09:38:15;102656.22;;;21.63;48.53
21109;BME280;10712;52.944;9.098;2023-05-25T09:40:41;102654.44;;;21.74;48.86
21109;BME280;10712;52.944;9.098;2023-05-25T09:43:07;102659.19;;;21.83;48.52
21109;BME280;10712;52.944;9.098;2023-05-25T09:45:33;102661.75;;;21.97;48.05
21109;BME280;10712;52.944;9.098;2023-05-25T09:48:01;102667.78;;;22.01;47.50
21109;BME280;10712;52.944;9.098;2023-05-25T09:50:28;102667.69;;;22.03;47.10
21109;BME280;10712;52.944;9.098;2023-05-25T09:52:59;102669.63;;;22.00;47.06
21109;BME280;10712;52.944;9.098;2023-05-25T09:55:29;102666.50;;;21.94;46.49
21109;BME280;10712;52.944;9.098;2023-05-25T09:57:56;102668.16;;;21.96;46.38
21109;BME280;10712;52.944;9.098;2023-05-25T10:00:23;102678.22;;;21.94;46.56
21109;BME280;10712;52.944;9.098;2023-05-25T10:02:50;102671.91;;;21.94;46.35
21109;BME280;10712;52.944;9.098;2023-05-25T10:05:16;102675.50;;;21.94;46.37
21109;BME280;10712;52.944;9.098;2023-05-25T10:07:44;102672.59;;;21.97;45.78
21109;BME280;10712;52.944;9.098;2023-05-25T10:10:13;102673.00;;;22.04;45.99
21109;BME280;10712;52.944;9.098;2023-05-25T10:12:42;102671.88;;;22.07;45.82
21109;BME280;10712;52.944;9.098;2023-05-25T10:15:11;102677.13;;;22.21;45.48
21109;BME280;10712;52.944;9.098;2023-05-25T10:17:50;102678.34;;;22.17;45.25
21109;BME280;10712;52.944;9.098;2023-05-25T10:20:17;102676.41;;;22.19;45.09
21109;BME280;10712;52.944;9.098;2023-05-25T10:22:55;102676.88;;;22.13;45.61
21109;BME280;10712;52.944;9.098;2023-05-25T10:25:37;102670.50;;;22.25;45.56
21109;BME280;10712;52.944;9.098;2023-05-25T10:28:21;102676.22;;;22.44;45.25
21109;BME280;10712;52.944;9.098;2023-05-25T10:30:52;102677.97;;;22.56;45.02
21109;BME280;10712;52.944;9.098;2023-05-25T10:33:20;102682.66;;;22.54;44.41
21109;BME280;10712;52.944;9.098;2023-05-25T10:35:48;102681.19;;;22.50;44.27
21109;BME280;10712;52.944;9.098;2023-05-25T10:38:16;102680.19;;;22.40;44.09
21109;BME280;10712;52.944;9.098;2023-05-25T10:40:45;102681.16;;;22.39;44.22
21109;BME280;10712;52.944;9.098;2023-05-25T10:43:19;102688.09;;;22.54;44.12
21109;BME280;10712;52.944;9.098;2023-05-25T10:45:47;102688.84;;;22.56;42.88
21109;BME280;10712;52.944;9.098;2023-05-25T10:48:14;102677.56;;;22.73;42.75
21109;BME280;10712;52.944;9.098;2023-05-25T10:50:40;102674.84;;;22.85;43.34
21109;BME280;10712;52.944;9.098;2023-05-25T10:53:12;102674.72;;;22.86;43.36
21109;BME280;10712;52.944;9.098;2023-05-25T10:58:21;102670.91;;;22.89;43.76
21109;BME280;10712;52.944;9.098;2023-05-25T11:01:06;102665.47;;;22.89;44.00
21109;BME280;10712;52.944;9.098;2023-05-25T11:03:47;102667.19;;;22.90;43.57
21109;BME280;10712;52.944;9.098;2023-05-25T11:06:19;102664.13;;;22.94;43.44
21109;BME280;10712;52.944;9.098;2023-05-25T11:08:59;102651.84;;;23.11;43.30
21109;BME280;10712;52.944;9.098;2023-05-25T11:14:27;102653.81;;;23.31;41.67
21109;BME280;10712;52.944;9.098;2023-05-25T11:17:13;102658.53;;;23.29;42.39
21109;BME280;10712;52.944;9.098;2023-05-25T11:19:52;102652.84;;;23.32;42.84
21109;BME280;10712;52.944;9.098;2023-05-25T11:22:29;102658.66;;;23.28;42.24
21109;BME280;10712;52.944;9.098;2023-05-25T11:24:58;102655.31;;;23.24;41.55
21109;BME280;10712;52.944;9.098;2023-05-25T11:27:31;102657.94;;;23.14;41.71
21109;BME280;10712;52.944;9.098;2023-05-25T11:29:58;102659.53;;;23.28;42.14
21109;BME280;10712;52.944;9.098;2023-05-25T11:32:25;102650.13;;;23.43;41.67
21109;BME280;10712;52.944;9.098;2023-05-25T11:34:53;102646.41;;;23.55;41.40
21109;BME280;10712;52.944;9.098;2023-05-25T11:37:21;102644.59;;;23.77;41.99
21109;BME280;10712;52.944;9.098;2023-05-25T11:39:52;102647.34;;;23.77;41.77
21109;BME280;10712;52.944;9.098;2023-05-25T11:42:23;102646.97;;;23.70;41.84
21109;BME280;10712;52.944;9.098;2023-05-25T11:44:49;102654.03;;;23.62;41.31
21109;BME280;10712;52.944;9.098;2023-05-25T11:47:19;102635.13;;;23.60;41.18
21109;BME280;10712;52.944;9.098;2023-05-25T11:49:47;102637.31;;;23.66;41.23
21109;BME280;10712;52.944;9.098;2023-05-25T11:52:19;102638.69;;;23.72;40.74
21109;BME280;10712;52.944;9.098;2023-05-25T11:54:45;102642.47;;;23.80;41.10
21109;BME280;10712;52.944;9.098;2023-05-25T11:57:15;102637.19;;;23.68;39.88
21109;BME280;10712;52.944;9.098;2023-05-25T11:59:53;102644.44;;;23.58;40.57
21109;BME280;10712;52.944;9.098;2023-05-25T12:02:21;102636.44;;;23.77;41.07
21109;BME280;10712;52.944;9.098;2023-05-25T12:07:20;102636.34;;;23.99;40.89
21109;BME280;10712;52.944;9.098;2023-05-25T12:09:45;102636.53;;;24.07;40.99
21109;BME280;10712;52.944;9.098;2023-05-25T12:12:12;102634.97;;;24.05;41.29
21109;BME280;10712;52.944;9.098;2023-05-25T12:14:50;102639.19;;;23.98;40.02
21109;BME280;10712;52.944;9.098;2023-05-25T12:17:20;102631.69;;;23.90;40.11
21109;BME280;10712;52.944;9.098;2023-05-25T12:19:47;102637.19;;;24.00;40.13
21109;BME280;10712;52.944;9.098;2023-05-25T12:22:13;102627.13;;;24.11;39.77
21109;BME280;10712;52.944;9.098;2023-05-25T12:24:39;102628.81;;;24.23;39.54
21109;BME280;10712;52.944;9.098;2023-05-25T12:27:19;102617.41;;;24.29;39.25
21109;BME280;10712;52.944;9.098;2023-05-25T12:29:47;102623.38;;;24.23;38.47
21109;BME280;10712;52.944;9.098;2023-05-25T12:32:14;102623.09;;;24.06;38.68
21109;BME280;10712;52.944;9.098;2023-05-25T12:34:40;102628.38;;;24.07;38.94
21109;BME280;10712;52.944;9.098;2023-05-25T12:37:20;102614.97;;;24.15;39.50
21109;BME280;10712;52.944;9.098;2023-05-25T12:39:47;102605.91;;;24.26;39.68
21109;BME280;10712;52.944;9.098;2023-05-25T12:42:15;102615.13;;;24.34;39.16
21109;BME280;10712;52.944;9.098;2023-05-25T12:44:43;102615.09;;;24.25;39.09
21109;BME280;10712;52.944;9.098;2023-05-25T12:47:20;102604.50;;;24.31;39.05
21109;BME280;10712;52.944;9.098;2023-05-25T12:50:09;102608.97;;;24.32;38.84
21109;BME280;10712;52.944;9.098;2023-05-25T12:52:43;102607.75;;;24.46;38.91
21109;BME280;10712;52.944;9.098;2023-05-25T12:55:26;102604.06;;;24.57;38.79
21109;BME280;10712;52.944;9.098;2023-05-25T12:57:58;102599.56;;;24.67;38.78
21109;BME280;10712;52.944;9.098;2023-05-25T13:02:55;102608.19;;;24.72;38.85
21109;BME280;10712;52.944;9.098;2023-05-25T13:05:25;102613.56;;;24.62;38.48
21109;BME280;10712;52.944;9.098;2023-05-25T13:07:56;102612.44;;;24.65;37.58